Time;durP1;ratioP1;P1;durP2;ratioP2;P2;SDS_P1;SDS_P2;PMS_P1;PMS_P2;Temp;Humidity;BMP_temperature;BMP_pressure;BME280_temperature;BME280_humidity;BME280_pressure;Samples;Min_cycle;Max_cycle;Signal;HPM_P1;HPM_P2
2023/01/17 00:02:14;;;;;;;60.70;25.40;;;;;;;2.51;94.14;97437.53;110414;1269;22271;-76
2023/01/17 00:10:21;;;;;;;55.90;24.80;;;;;;;2.47;94.93;97427.35;107322;1275;25564;-75
2023/01/17 00:12:52;;;;;;;62.80;26.00;;;;;;;2.47;94.84;97427.34;108519;1275;25335;-76
2023/01/17 00:15:24;;;;;;;59.80;26.50;;;;;;;2.47;95.04;97421.35;107538;1275;22545;-75
2023/01/17 00:17:53;;;;;;;61.70;27.10;;;;;;;2.45;94.81;97420.71;107453;1275;22904;-76
2023/01/17 00:26:15;;;;;;;55.90;25.80;;;;;;;2.33;94.61;97419.91;107329;1275;22563;-76
2023/01/17 01:33:58;;;;;;;59.30;24.60;;;;;;;2.29;94.66;97338.27;107405;1275;22539;-75
2023/01/17 01:36:26;;;;;;;60.20;25.60;;;;;;;2.24;94.56;97338.90;107368;1275;23821;-74
2023/01/17 01:38:55;;;;;;;62.00;25.70;;;;;;;2.21;95.05;97338.09;107455;1267;22534;-75
2023/01/17 01:41:23;;;;;;;65.70;27.40;;;;;;;2.19;95.28;97342.06;107321;1275;24225;-75
2023/01/17 01:43:54;;;;;;;55.90;24.10;;;;;;;2.17;95.44;97342.10;107502;1269;22527;-75
2023/01/17 01:46:38;;;;;;;59.90;25.40;;;;;;;2.14;95.50;97340.27;110456;1275;22251;-75
2023/01/17 01:49:20;;;;;;;59.20;24.80;;;;;;;2.10;95.22;97342.91;110293;1273;22334;-76
2023/01/17 01:51:54;;;;;;;59.70;25.40;;;;;;;2.08;95.45;97339.72;110310;1275;22192;-76
2023/01/17 01:54:43;;;;;;;65.70;27.90;;;;;;;2.07;95.32;97337.51;110463;1263;22328;-76
2023/01/17 01:57:16;;;;;;;53.50;24.10;;;;;;;2.05;95.23;97340.61;110470;1275;22343;-78
2023/01/17 01:59:50;;;;;;;60.30;24.10;;;;;;;2.04;95.74;97338.25;110464;1272;22306;-75
2023/01/17 02:02:18;;;;;;;;;;;;;;;2.05;94.56;97334.48;110467;1272;22343;-78
2023/01/17 02:04:48;;;;;;;65.50;23.80;;;;;;;2.04;94.96;97331.75;110556;1275;22261;-76
2023/01/17 02:07:27;;;;;;;65.30;26.00;;;;;;;2.07;95.65;97326.23;110499;1266;22274;-76
2023/01/17 02:09:57;;;;;;;63.00;26.70;;;;;;;2.12;95.12;97319.95;110461;1266;22394;-75
2023/01/17 02:12:26;;;;;;;69.10;29.90;;;;;;;2.15;95.13;97321.47;107892;1275;24349;-75
2023/01/17 02:14:54;;;;;;;64.10;26.70;;;;;;;2.19;95.34;97320.85;107618;1275;22631;-75
2023/01/17 02:17:51;;;;;;;57.20;24.30;;;;;;;2.25;95.46;97325.88;107522;1275;25574;-75
2023/01/17 02:20:30;;;;;;;57.90;23.50;;;;;;;2.29;95.33;97329.55;107401;1275;25581;-75
2023/01/17 02:23:24;;;;;;;62.00;26.90;;;;;;;2.33;95.48;97330.34;106898;1275;624744;-75
2023/01/17 02:26:09;;;;;;;70.20;23.80;;;;;;;2.36;95.09;97335.06;107409;1275;24223;-75
2023/01/17 02:29:05;;;;;;;60.10;26.30;;;;;;;2.37;95.47;97325.29;107376;1275;22529;-75
2023/01/17 02:32:11;;;;;;;65.50;25.30;;;;;;;2.41;95.47;97329.64;107513;1275;24345;-75
2023/01/17 02:34:46;;;;;;;53.70;22.60;;;;;;;2.45;95.58;97329.91;107491;1275;22810;-76
2023/01/17 02:37:47;;;;;;;55.00;21.30;;;;;;;2.51;95.43;97323.80;107461;1270;25403;-76
2023/01/17 02:40:23;;;;;;;50.70;22.60;;;;;;;2.54;95.59;97328.02;107508;1269;23389;-75
2023/01/17 02:42:57;;;;;;;58.50;22.10;;;;;;;2.58;95.52;97324.33;107513;1269;22523;-75
2023/01/17 02:45:25;;;;;;;54.30;23.70;;;;;;;2.59;95.52;97325.16;107362;1275;25336;-75
2023/01/17 02:47:54;;;;;;;58.50;24.50;;;;;;;2.66;95.84;97325.02;107515;1275;22539;-75
2023/01/17 02:50:48;;;;;;;56.40;24.30;;;;;;;2.73;96.03;97331.20;107571;1275;23423;-75
2023/01/17 02:53:26;;;;;;;63.70;24.20;;;;;;;2.82;96.02;97325.70;107500;1275;23364;-75
2023/01/17 02:56:30;;;;;;;57.90;25.90;;;;;;;2.85;95.77;97322.89;107513;1275;24244;-74
2023/01/17 02:58:59;;;;;;;;;;;;;;;2.88;95.83;97322.13;107482;1275;22626;-75
2023/01/17 03:01:33;;;;;;;57.80;24.30;;;;;;;2.90;95.89;97325.51;107425;1275;22566;-75
2023/01/17 03:04:20;;;;;;;55.20;22.80;;;;;;;2.85;95.40;97327.33;107477;1275;22566;-75
2023/01/17 03:06:57;;;;;;;53.70;25.40;;;;;;;2.80;95.51;97331.04;107444;1273;23019;-75
2023/01/17 03:09:29;;;;;;;54.40;24.40;;;;;;;2.79;95.43;97329.53;107456;1275;24206;-75
2023/01/17 03:11:58;;;;;;;54.40;24.50;;;;;;;2.76;95.52;97326.50;110457;1275;22168;-77
2023/01/17 03:14:29;;;;;;;55.90;24.20;;;;;;;2.74;95.71;97324.83;110446;1275;23050;-75
2023/01/17 03:16:58;;;;;;;59.80;24.10;;;;;;;2.71;95.60;97319.42;110423;1275;22220;-75
2023/01/17 03:19:26;;;;;;;57.00;26.20;;;;;;;2.70;95.62;97321.52;110433;1275;23069;-75
2023/01/17 03:21:54;;;;;;;55.80;24.70;;;;;;;2.67;95.81;97326.20;110347;1275;22162;-76
2023/01/17 03:24:22;;;;;;;59.20;24.80;;;;;;;2.66;95.57;97327.77;110346;1275;22281;-75
2023/01/17 03:26:50;;;;;;;58.20;25.10;;;;;;;2.64;95.50;97321.80;110388;1275;22267;-76
2023/01/17 03:29:19;;;;;;;58.30;24.90;;;;;;;2.66;96.03;97323.83;110413;1272;22276;-75
2023/01/17 03:31:47;;;;;;;60.60;25.40;;;;;;;2.66;95.76;97323.13;110355;1275;22191;-76
2023/01/17 03:34:15;;;;;;;54.20;22.70;;;;;;;2.67;96.29;97325.36;110450;1269;22302;-75
2023/01/17 03:36:43;;;;;;;54.70;23.30;;;;;;;2.67;96.29;97320.20;110473;1269;22253;-75
2023/01/17 03:39:12;;;;;;;59.90;24.70;;;;;;;2.69;96.04;97321.02;110443;1275;22209;-75
2023/01/17 03:41:40;;;;;;;64.20;24.90;;;;;;;2.71;96.14;97322.34;110462;1275;22668;-75
2023/01/17 03:44:08;;;;;;;60.60;25.30;;;;;;;2.73;95.61;97321.95;110493;1272;22345;-75
2023/01/17 03:46:36;;;;;;;60.70;24.20;;;;;;;2.76;95.83;97322.73;110428;1267;22164;-75
2023/01/17 03:49:05;;;;;;;52.90;22.10;;;;;;;2.79;96.02;97321.13;110473;1275;22322;-75
2023/01/17 03:51:33;;;;;;;53.10;22.10;;;;;;;2.82;96.00;97324.67;110424;1275;22265;-76
2023/01/17 03:54:01;;;;;;;55.00;22.20;;;;;;;2.82;96.00;97323.81;110455;1274;22198;-76
2023/01/17 03:56:29;;;;;;;55.30;22.00;;;;;;;2.84;96.12;97328.55;110322;1275;22426;-75
2023/01/17 03:58:57;;;;;;;55.00;23.00;;;;;;;2.89;96.37;97330.16;110478;1275;23164;-75
2023/01/17 04:01:25;;;;;;;54.20;21.70;;;;;;;2.94;96.34;97329.52;110500;1275;22330;-76
2023/01/17 04:03:54;;;;;;;55.10;21.90;;;;;;;3.00;96.45;97305.94;110457;1275;22226;-77
2023/01/17 04:06:27;;;;;;;55.10;21.50;;;;;;;2.97;96.36;97310.11;110455;1275;22195;-75
2023/01/17 04:08:55;;;;;;;51.00;21.10;;;;;;;3.01;96.56;97309.02;110454;1275;22969;-75
2023/01/17 04:11:26;;;;;;;56.30;21.80;;;;;;;3.00;96.44;97314.16;109994;1275;25272;-79
2023/01/17 04:13:57;;;;;;;58.20;22.90;;;;;;;3.03;96.68;97315.64;108333;1275;22745;-83
2023/01/17 04:16:29;;;;;;;52.20;21.20;;;;;;;3.05;96.84;97310.45;108370;1267;22480;-76
2023/01/17 04:18:57;;;;;;;59.10;24.00;;;;;;;3.12;97.09;97320.56;108042;1275;23617;-77
2023/01/17 04:21:25;;;;;;;67.70;26.30;;;;;;;3.17;96.99;97316.49;107862;1275;23019;-77
2023/01/17 04:23:54;;;;;;;66.60;26.10;;;;;;;3.21;97.06;97308.18;107576;1275;25330;-76
2023/01/17 04:26:22;;;;;;;51.00;21.80;;;;;;;3.25;97.06;97309.80;107530;1275;25955;-75
2023/01/17 04:28:50;;;;;;;60.40;22.60;;;;;;;3.27;97.08;97296.91;107393;1265;22546;-76
2023/01/17 04:31:18;;;;;;;55.80;23.80;;;;;;;3.29;96.78;97291.02;107531;1272;22559;-75
2023/01/17 04:33:47;;;;;;;50.30;22.90;;;;;;;3.31;96.70;97296.30;107519;1275;23928;-75
2023/01/17 04:36:15;;;;;;;52.60;23.40;;;;;;;3.29;96.42;97294.97;107472;1275;24788;-75
2023/01/17 04:38:43;;;;;;;49.60;23.70;;;;;;;3.28;96.45;97298.44;107476;1275;22523;-75
2023/01/17 04:41:11;;;;;;;55.00;23.90;;;;;;;3.25;96.02;97295.40;107470;1275;22538;-75
2023/01/17 04:43:40;;;;;;;53.20;23.80;;;;;;;3.21;96.05;97306.14;107520;1270;25329;-75
2023/01/17 04:46:09;;;;;;;48.70;22.90;;;;;;;3.19;96.37;97311.14;107534;1275;24393;-75
2023/01/17 04:48:38;;;;;;;55.80;23.80;;;;;;;3.17;96.45;97315.48;110453;1275;22914;-76
2023/01/17 04:51:06;;;;;;;54.80;23.80;;;;;;;3.13;96.31;97305.63;110405;1275;23090;-77
2023/01/17 04:53:34;;;;;;;59.80;24.50;;;;;;;3.08;95.57;97294.81;110449;1275;22407;-76
2023/01/17 04:56:03;;;;;;;49.20;22.10;;;;;;;3.01;95.72;97285.22;110468;1269;22210;-76
2023/01/17 04:58:32;;;;;;;59.30;23.60;;;;;;;2.95;96.09;97287.06;110466;1275;22208;-76
2023/01/17 05:01:02;;;;;;;56.00;24.10;;;;;;;2.93;96.21;97293.27;110485;1267;22298;-76
2023/01/17 05:03:32;;;;;;;63.80;26.30;;;;;;;2.89;96.29;97299.00;110463;1275;22212;-75
2023/01/17 05:06:00;;;;;;;57.30;25.10;;;;;;;2.85;96.05;97303.21;110426;1275;22223;-76
2023/01/17 05:08:29;;;;;;;64.60;25.80;;;;;;;2.80;95.97;97283.82;110412;1275;23075;-76
2023/01/17 05:10:57;;;;;;;63.40;26.30;;;;;;;2.75;96.80;97265.63;110429;1275;23053;-76
2023/01/17 05:13:29;;;;;;;68.40;25.40;;;;;;;2.70;96.12;97252.58;110438;1269;22179;-76
2023/01/17 05:15:57;;;;;;;89.00;34.60;;;;;;;2.64;95.32;97247.22;110437;1275;22220;-76
2023/01/17 05:18:26;;;;;;;84.60;33.20;;;;;;;2.58;97.39;97249.41;110435;1272;22253;-76
2023/01/17 05:21:00;;;;;;;86.30;35.60;;;;;;;2.56;96.68;97249.29;110440;1275;22277;-76
2023/01/17 05:23:29;;;;;;;63.10;27.00;;;;;;;2.55;97.12;97254.45;110223;1275;22734;-76
2023/01/17 05:25:57;;;;;;;70.40;30.80;;;;;;;2.54;97.01;97260.10;110463;1275;22219;-76
2023/01/17 05:28:25;;;;;;;75.40;32.60;;;;;;;2.53;97.02;97261.66;110455;1275;22164;-77
2023/01/17 05:30:54;;;;;;;62.60;27.50;;;;;;;2.54;97.16;97272.93;110474;1275;22407;-76
2023/01/17 05:33:22;;;;;;;60.50;25.70;;;;;;;2.54;97.71;97283.88;110480;1275;23086;-76
2023/01/17 05:35:50;;;;;;;64.10;28.30;;;;;;;2.55;97.75;97279.25;110426;1275;22325;-77
2023/01/17 05:38:19;;;;;;;58.90;26.10;;;;;;;2.55;97.78;97283.33;110467;1275;22204;-76
2023/01/17 05:40:49;;;;;;;66.60;27.70;;;;;;;2.57;97.44;97288.79;110365;1275;23425;-77
2023/01/17 05:43:17;;;;;;;56.10;25.60;;;;;;;2.61;97.63;97284.42;110363;1275;22339;-76
2023/01/17 05:45:50;;;;;;;66.40;27.00;;;;;;;2.66;97.80;97286.02;110427;1275;22397;-76
2023/01/17 05:48:19;;;;;;;67.80;28.10;;;;;;;2.71;97.81;97286.08;110474;1275;22231;-77
2023/01/17 05:50:47;;;;;;;65.20;26.50;;;;;;;2.77;97.83;97291.07;110473;1275;22906;-77
2023/01/17 05:53:16;;;;;;;67.30;26.80;;;;;;;2.83;97.88;97294.54;110389;1275;22461;-76
2023/01/17 05:55:44;;;;;;;59.50;25.40;;;;;;;2.91;97.93;97303.41;110498;1275;22357;-76
2023/01/17 05:58:16;;;;;;;68.40;27.00;;;;;;;2.96;97.85;97301.42;110359;1273;22188;-78
2023/01/17 06:00:44;;;;;;;61.80;31.50;;;;;;;3.02;97.92;97298.36;110366;1275;22195;-75
2023/01/17 06:03:12;;;;;;;61.70;27.70;;;;;;;3.05;97.21;97298.30;110412;1275;22182;-77
2023/01/17 06:05:41;;;;;;;64.90;31.00;;;;;;;2.99;96.90;97299.30;107884;1275;23379;-76
2023/01/17 06:08:10;;;;;;;68.90;30.60;;;;;;;2.96;97.01;97297.30;107358;1275;24281;-78
2023/01/17 06:10:38;;;;;;;70.40;31.70;;;;;;;2.97;97.14;97298.83;107545;1275;22549;-76
2023/01/17 06:13:14;;;;;;;74.00;34.40;;;;;;;2.97;97.04;97297.63;107597;1275;23086;-76
2023/01/17 06:15:45;;;;;;;68.70;31.50;;;;;;;2.95;96.98;97303.48;110486;1275;22512;-77
2023/01/17 06:18:16;;;;;;;72.20;30.30;;;;;;;2.92;96.77;97299.61;110482;1275;22239;-76
2023/01/17 06:20:44;;;;;;;62.50;28.50;;;;;;;2.87;96.80;97299.73;110475;1275;23450;-75
2023/01/17 06:23:15;;;;;;;61.30;30.00;;;;;;;2.83;96.49;97302.92;108324;1275;22569;-77
2023/01/17 06:25:45;;;;;;;71.80;30.10;;;;;;;2.78;96.31;97305.25;107525;1267;23233;-75
2023/01/17 06:28:16;;;;;;;66.70;30.00;;;;;;;2.74;96.32;97304.13;110480;1263;22336;-76
2023/01/17 06:30:45;;;;;;;74.80;31.70;;;;;;;2.68;96.71;97302.55;110466;1275;22173;-76
2023/01/17 06:33:13;;;;;;;73.20;30.20;;;;;;;2.63;97.07;97296.53;110451;1275;22327;-76
2023/01/17 06:35:49;;;;;;;71.00;30.50;;;;;;;2.59;96.88;97301.38;110485;1275;22194;-76
2023/01/17 06:38:18;;;;;;;95.50;36.80;;;;;;;2.57;97.62;97305.89;110458;1275;22217;-76
2023/01/17 06:40:46;;;;;;;107.70;37.60;;;;;;;2.55;97.91;97305.41;110455;1275;22885;-76
2023/01/17 06:43:15;;;;;;;75.10;31.10;;;;;;;2.55;97.99;97305.92;110485;1275;22967;-77
2023/01/17 06:45:46;;;;;;;73.50;30.10;;;;;;;2.55;98.22;97298.74;108270;1275;24701;-77
2023/01/17 06:48:17;;;;;;;73.80;31.40;;;;;;;2.57;98.02;97301.77;107467;1275;25342;-76
2023/01/17 06:50:48;;;;;;;130.50;50.70;;;;;;;2.59;97.96;97301.73;107555;1275;22723;-75
2023/01/17 06:53:17;;;;;;;87.30;37.50;;;;;;;2.62;98.20;97305.42;107456;1275;25478;-77
2023/01/17 06:55:45;;;;;;;85.00;37.60;;;;;;;2.66;98.32;97300.91;107510;1275;22572;-76
2023/01/17 06:58:13;;;;;;;83.70;35.10;;;;;;;2.68;98.12;97299.13;107619;1275;22640;-76
2023/01/17 07:00:42;;;;;;;76.40;33.30;;;;;;;2.72;98.41;97301.95;107485;1275;25271;-76
2023/01/17 07:03:18;;;;;;;73.40;31.70;;;;;;;2.76;98.18;97301.53;107665;1275;22630;-75
2023/01/17 07:05:47;;;;;;;69.90;32.30;;;;;;;2.80;98.16;97309.48;107473;1275;24226;-80
2023/01/17 07:08:21;;;;;;;77.90;30.20;;;;;;;2.80;97.70;97309.46;107458;1275;23317;-76
2023/01/17 07:11:00;;;;;;;71.20;27.40;;;;;;;2.83;97.25;97315.09;107529;1270;22516;-76
2023/01/17 07:13:32;;;;;;;67.90;28.20;;;;;;;2.85;97.47;97312.45;110479;1275;22193;-76
2023/01/17 07:16:04;;;;;;;70.20;29.00;;;;;;;2.86;97.54;97319.61;110397;1275;22166;-77
2023/01/17 07:18:34;;;;;;;71.10;30.10;;;;;;;2.89;97.41;97320.73;108299;1275;22611;-76
2023/01/17 07:21:02;;;;;;;67.20;29.10;;;;;;;2.91;97.65;97320.85;107662;1275;23881;-77
2023/01/17 07:23:30;;;;;;;65.80;27.20;;;;;;;2.99;97.72;97326.16;107604;1275;22550;-76
2023/01/17 07:25:59;;;;;;;73.20;30.20;;;;;;;3.00;97.69;97331.80;107641;1275;22539;-75
2023/01/17 07:28:28;;;;;;;58.90;27.70;;;;;;;3.05;97.89;97327.55;107607;1274;22550;-75
2023/01/17 07:31:06;;;;;;;69.40;30.50;;;;;;;3.11;98.05;97334.27;107606;1274;22522;-76
2023/01/17 07:33:35;;;;;;;72.90;31.90;;;;;;;3.20;98.27;97340.40;107610;1272;22739;-76
2023/01/17 07:36:06;;;;;;;83.60;37.40;;;;;;;3.27;98.30;97344.51;107611;1275;24208;-76
2023/01/17 07:38:34;;;;;;;84.90;38.00;;;;;;;3.35;98.29;97349.98;110482;1266;22303;-76
2023/01/17 07:41:03;;;;;;;74.20;32.80;;;;;;;3.43;98.15;97361.41;110483;1272;22190;-77
2023/01/17 07:43:31;;;;;;;72.60;36.30;;;;;;;3.51;98.24;97377.00;110456;1275;22942;-76
2023/01/17 07:45:59;;;;;;;73.30;33.60;;;;;;;3.56;98.00;97398.09;107734;1275;22516;-75
2023/01/17 07:48:29;;;;;;;68.70;32.30;;;;;;;3.60;97.60;97414.61;107711;1275;22539;-76
2023/01/17 07:51:00;;;;;;;61.50;29.30;;;;;;;3.63;97.49;97420.40;108436;1267;22475;-80
2023/01/17 07:53:31;;;;;;;71.70;32.90;;;;;;;3.64;97.26;97413.34;108188;1270;22554;-76
2023/01/17 07:56:05;;;;;;;71.00;31.20;;;;;;;3.64;97.14;97426.71;110148;1275;22712;-76
2023/01/17 07:58:34;;;;;;;76.80;33.30;;;;;;;3.65;97.55;97445.02;108195;1275;25217;-76
2023/01/17 08:01:05;;;;;;;75.60;34.10;;;;;;;3.63;97.21;97460.13;107971;1275;23681;-76
2023/01/17 08:03:38;;;;;;;74.30;31.00;;;;;;;3.55;97.24;97483.44;110518;1275;22168;-76
2023/01/17 08:06:22;;;;;;;63.00;26.80;;;;;;;3.51;97.31;97495.17;110466;1275;22401;-75
2023/01/17 08:08:55;;;;;;;62.10;25.80;;;;;;;3.46;97.15;97494.61;107955;1269;22565;-75
2023/01/17 08:11:23;;;;;;;65.10;28.10;;;;;;;3.44;97.60;97497.04;107658;1275;25407;-79
2023/01/17 08:13:58;;;;;;;59.90;27.10;;;;;;;3.42;97.58;97496.59;107699;1275;23359;-75
2023/01/17 08:16:27;;;;;;;56.10;23.40;;;;;;;3.41;97.16;97501.57;110510;1275;22263;-77
2023/01/17 08:18:58;;;;;;;51.30;22.50;;;;;;;3.39;96.99;97510.15;108271;1275;24909;-75
2023/01/17 08:21:29;;;;;;;48.20;20.70;;;;;;;3.40;97.59;97509.45;108180;1275;25411;-75
2023/01/17 08:23:58;;;;;;;57.40;22.70;;;;;;;3.42;98.24;97513.36;107882;1254;22618;-75
2023/01/17 08:26:26;;;;;;;53.20;23.50;;;;;;;3.46;98.34;97507.30;107662;1275;24172;-75
2023/01/17 08:28:58;;;;;;;54.10;24.00;;;;;;;3.52;98.55;97507.33;107544;1266;22525;-75
2023/01/17 08:31:29;;;;;;;58.00;25.70;;;;;;;3.59;98.97;97508.38;110431;1275;22210;-76
2023/01/17 08:34:00;;;;;;;63.70;26.20;;;;;;;3.66;99.03;97507.85;110455;1275;23026;-76
2023/01/17 08:36:30;;;;;;;59.00;25.10;;;;;;;3.75;99.13;97501.98;110467;1272;23250;-77
2023/01/17 08:38:58;;;;;;;59.70;24.90;;;;;;;3.84;99.36;97499.23;110457;1275;22254;-75
2023/01/17 08:41:27;;;;;;;56.00;24.20;;;;;;;3.94;99.48;97502.41;110482;1275;22396;-77
2023/01/17 08:43:55;;;;;;;57.00;24.00;;;;;;;4.04;99.41;97503.38;110474;1275;22121;-76
2023/01/17 08:46:23;;;;;;;51.90;21.90;;;;;;;4.12;99.40;97502.83;110293;1275;22242;-76
2023/01/17 08:48:57;;;;;;;47.50;21.10;;;;;;;4.16;99.29;97502.89;110407;1275;22209;-76
2023/01/17 08:51:26;;;;;;;45.50;18.80;;;;;;;4.25;99.35;97501.99;110383;1275;22255;-76
2023/01/17 08:53:55;;;;;;;42.70;17.80;;;;;;;4.32;99.27;97497.02;110461;1266;22907;-76
2023/01/17 08:56:26;;;;;;;39.00;18.20;;;;;;;4.37;99.16;97494.66;110489;1275;22220;-76
2023/01/17 08:58:55;;;;;;;37.00;17.60;;;;;;;4.45;99.28;97496.35;110415;1275;22305;-76
2023/01/17 09:01:23;;;;;;;36.40;18.10;;;;;;;4.49;99.22;97495.19;110528;1275;22280;-76
2023/01/17 09:03:55;;;;;;;37.60;17.00;;;;;;;4.52;99.01;97486.70;107540;1275;22562;-75
2023/01/17 09:06:23;;;;;;;36.80;17.10;;;;;;;4.54;98.72;97482.02;107549;1267;22537;-75
2023/01/17 09:08:53;;;;;;;41.40;17.70;;;;;;;4.52;98.76;97477.81;107519;1276;22665;-75
2023/01/17 09:11:22;;;;;;;42.20;18.60;;;;;;;4.50;98.86;97470.98;107565;1275;24279;-78
2023/01/17 09:13:50;;;;;;;42.10;18.30;;;;;;;4.48;98.74;97463.48;107572;1275;24305;-76
2023/01/17 09:16:18;;;;;;;43.40;19.90;;;;;;;4.48;98.59;97458.52;107616;1275;22527;-75
2023/01/17 09:18:56;;;;;;;39.50;17.20;;;;;;;4.48;98.00;97452.85;107616;1258;24199;-76
2023/01/17 09:21:25;;;;;;;36.80;17.70;;;;;;;4.43;98.71;97445.60;107713;1272;23663;-75
2023/01/17 09:23:54;;;;;;;42.30;18.50;;;;;;;4.44;99.69;97455.21;107614;1275;22542;-75
2023/01/17 09:26:28;;;;;;;41.30;17.50;;;;;;;4.45;99.79;97466.31;107566;1275;23014;-77
2023/01/17 09:28:57;;;;;;;;;;;;;;;4.49;100.00;97473.08;110472;1275;22372;-77
2023/01/17 09:31:26;;;;;;;40.50;18.40;;;;;;;4.54;99.90;97472.27;110411;1275;23567;-77
2023/01/17 09:33:56;;;;;;;36.70;16.70;;;;;;;4.61;100.00;97477.39;110441;1275;22186;-76
2023/01/17 09:36:30;;;;;;;36.50;18.10;;;;;;;4.70;100.00;97484.86;107500;1275;23249;-75
2023/01/17 09:39:00;;;;;;;33.90;18.00;;;;;;;4.80;100.00;97485.63;107677;1275;22679;-77
2023/01/17 09:41:32;;;;;;;29.30;14.80;;;;;;;4.89;100.00;97482.96;107633;1275;24189;-76
2023/01/17 09:44:26;;;;;;;31.60;14.20;;;;;;;4.96;100.00;97474.54;107530;1275;22551;-75
2023/01/17 09:46:57;;;;;;;;;;;;;;;5.05;100.00;97463.95;107604;1275;22898;-77
2023/01/17 09:49:34;;;;;;;25.10;12.80;;;;;;;5.17;100.00;97461.38;107572;1275;26725;-75
2023/01/17 09:52:13;;;;;;;29.40;12.30;;;;;;;5.33;100.00;97462.98;107410;1275;22519;-75
2023/01/17 09:54:44;;;;;;;22.10;12.30;;;;;;;5.45;100.00;97466.90;107529;1275;25625;-76
2023/01/17 09:57:20;;;;;;;29.00;11.20;;;;;;;5.57;100.00;97467.39;107558;1275;22642;-76
2023/01/17 10:00:11;;;;;;;25.00;10.90;;;;;;;5.70;100.00;97470.27;107614;1275;25472;-77
2023/01/17 10:03:08;;;;;;;23.60;12.20;;;;;;;5.85;100.00;97475.30;107678;1275;22513;-77
2023/01/17 10:05:47;;;;;;;40.10;19.10;;;;;;;6.02;100.00;97481.13;107605;1276;25338;-75
2023/01/17 10:08:25;;;;;;;39.20;22.10;;;;;;;6.19;100.00;97476.63;107556;1275;22526;-78
2023/01/17 10:11:31;;;;;;;38.60;17.60;;;;;;;6.33;100.00;97471.33;107488;1275;24208;-76
2023/01/17 10:14:35;;;;;;;28.10;12.20;;;;;;;6.51;99.95;97478.65;107473;1275;24196;-77
2023/01/17 10:17:28;;;;;;;59.00;20.30;;;;;;;6.62;99.30;97474.64;107631;1275;24031;-76
2023/01/17 10:20:32;;;;;;;23.20;11.30;;;;;;;6.69;99.04;97466.81;107405;1275;22555;-76
2023/01/17 10:23:30;;;;;;;22.30;10.80;;;;;;;6.75;97.97;97466.41;110438;1276;22966;-77
2023/01/17 10:26:07;;;;;;;20.60;9.80;;;;;;;6.85;97.79;97461.06;110366;1276;22224;-76
2023/01/17 10:28:48;;;;;;;16.00;7.40;;;;;;;6.98;98.16;97457.33;110308;1270;22214;-76
2023/01/17 10:31:23;;;;;;;16.10;7.30;;;;;;;7.14;98.17;97460.89;110410;1275;22232;-77
2023/01/17 10:34:02;;;;;;;15.80;7.20;;;;;;;7.30;97.78;97460.63;110350;1275;22187;-76
2023/01/17 10:36:37;;;;;;;14.10;6.90;;;;;;;7.47;97.94;97456.01;110388;1270;22380;-76
2023/01/17 10:39:28;;;;;;;12.20;6.70;;;;;;;7.64;98.04;97450.33;109870;1270;24073;-77
2023/01/17 10:42:25;;;;;;;12.70;6.00;;;;;;;7.79;98.08;97443.02;107272;1275;24215;-79
2023/01/17 10:45:14;;;;;;;8.70;4.80;;;;;;;7.93;98.01;97438.85;107293;1275;22523;-77
2023/01/17 10:47:52;;;;;;;10.10;4.60;;;;;;;8.01;95.99;97430.03;107456;1273;22522;-76
2023/01/17 10:50:23;;;;;;;8.60;4.10;;;;;;;8.12;96.15;97426.81;107751;1275;23096;-77
2023/01/17 10:52:52;;;;;;;11.30;4.60;;;;;;;8.23;94.93;97417.27;107604;1275;22537;-77
2023/01/17 10:55:30;;;;;;;8.80;4.50;;;;;;;8.30;94.44;97410.37;107556;1275;26314;-77
2023/01/17 10:57:58;;;;;;;8.40;4.00;;;;;;;8.40;94.49;97401.64;107554;1275;24203;-76
2023/01/17 11:00:51;;;;;;;8.50;4.10;;;;;;;8.47;93.00;97397.23;107563;1275;22603;-77
2023/01/17 11:03:27;;;;;;;8.70;4.80;;;;;;;8.53;91.99;97380.23;107597;1275;24356;-79
2023/01/17 11:06:19;;;;;;;8.00;4.10;;;;;;;8.52;91.34;97375.42;107521;1272;24278;-80
2023/01/17 11:09:02;;;;;;;6.30;2.70;;;;;;;8.60;90.94;97368.89;107571;1275;22545;-76
2023/01/17 11:11:36;;;;;;;3.90;1.60;;;;;;;8.66;89.66;97364.42;107572;1275;24341;-77
2023/01/17 11:14:16;;;;;;;2.70;1.40;;;;;;;8.77;86.86;97358.95;110205;1263;22585;-77
2023/01/17 11:16:45;;;;;;;3.30;1.50;;;;;;;8.89;87.39;97350.28;107721;1275;25566;-76
2023/01/17 11:19:27;;;;;;;3.30;1.70;;;;;;;9.04;88.34;97348.58;107620;1276;25262;-75
2023/01/17 11:22:03;;;;;;;3.60;1.50;;;;;;;9.16;87.13;97353.18;108316;1275;22556;-77
2023/01/17 11:24:40;;;;;;;3.90;1.70;;;;;;;9.26;86.40;97350.45;108755;1275;22571;-77
2023/01/17 11:27:24;;;;;;;3.70;1.80;;;;;;;9.35;86.40;97340.00;108117;1275;22659;-77
2023/01/17 11:30:15;;;;;;;6.40;2.80;;;;;;;9.46;86.29;97333.95;110444;1275;22117;-76
2023/01/17 11:32:57;;;;;;;5.90;2.40;;;;;;;9.53;85.89;97337.77;110467;1275;22262;-76
2023/01/17 11:35:29;;;;;;;5.20;2.20;;;;;;;9.53;84.81;97343.95;110413;1270;23177;-76
2023/01/17 11:37:58;;;;;;;4.40;2.40;;;;;;;9.50;84.28;97345.35;110458;1275;22259;-77
2023/01/17 11:40:35;;;;;;;3.40;1.90;;;;;;;9.51;83.46;97345.97;110454;1254;23612;-77
2023/01/17 11:43:27;;;;;;;3.40;1.30;;;;;;;9.51;82.54;97332.99;110420;1273;22226;-76
2023/01/17 11:46:19;;;;;;;1.60;1.10;;;;;;;9.56;81.90;97334.33;110421;1275;22231;-76
2023/01/17 11:48:55;;;;;;;2.30;1.30;;;;;;;9.68;82.51;97332.54;110363;1275;22271;-77
2023/01/17 11:51:40;;;;;;;2.70;1.40;;;;;;;9.76;80.49;97334.70;110422;1275;22208;-76
2023/01/17 11:54:39;;;;;;;3.20;1.40;;;;;;;9.89;80.63;97334.56;110371;1275;22221;-76
2023/01/17 11:57:22;;;;;;;2.20;1.10;;;;;;;10.01;78.18;97324.64;110330;1276;22205;-77
2023/01/17 11:59:58;;;;;;;4.50;1.50;;;;;;;10.11;79.51;97323.23;110373;1276;23436;-76
2023/01/17 12:02:32;;;;;;;3.70;1.70;;;;;;;10.22;78.01;97320.30;110412;1275;22319;-77
2023/01/17 12:05:00;;;;;;;2.90;1.50;;;;;;;10.41;78.50;97316.18;110413;1275;22228;-76
2023/01/17 12:07:57;;;;;;;2.90;1.70;;;;;;;10.57;76.89;97310.64;110404;1275;22306;-77
2023/01/17 12:10:28;;;;;;;3.90;1.80;;;;;;;10.78;76.10;97313.33;110294;1275;22184;-76
2023/01/17 12:16:40;;;;;;;9.80;2.70;;;;;;;11.11;76.26;97307.04;110296;1275;22409;-76
2023/01/17 12:19:15;;;;;;;4.60;2.10;;;;;;;11.31;76.55;97298.27;110293;1275;22241;-76
2023/01/17 12:22:02;;;;;;;4.90;1.80;;;;;;;11.48;74.10;97287.25;110444;1275;23231;-76
2023/01/17 12:24:46;;;;;;;4.30;1.90;;;;;;;11.63;73.40;97284.86;110449;1275;22215;-76
2023/01/17 12:27:33;;;;;;;3.20;1.80;;;;;;;11.72;73.16;97287.09;110448;1267;23339;-76
2023/01/17 12:30:23;;;;;;;2.60;1.50;;;;;;;11.86;73.87;97287.47;110089;1275;22529;-77
2023/01/17 12:33:18;;;;;;;3.80;1.80;;;;;;;12.01;71.82;97294.79;107689;1275;22530;-76
2023/01/17 12:35:57;;;;;;;4.30;1.60;;;;;;;12.54;69.59;97293.65;110458;1267;22236;-76
2023/01/17 12:38:32;;;;;;;5.90;1.70;;;;;;;12.95;69.78;97294.95;110425;1275;22287;-76
2023/01/17 12:41:25;;;;;;;5.10;1.70;;;;;;;13.08;71.64;97296.91;110373;1270;22275;-77
2023/01/17 12:43:57;;;;;;;6.00;2.50;;;;;;;13.07;67.62;97311.75;110436;1275;22298;-77
2023/01/17 12:46:32;;;;;;;8.00;1.90;;;;;;;13.05;69.28;97319.86;110444;1264;22093;-77
2023/01/17 12:49:39;;;;;;;11.30;2.10;;;;;;;12.99;68.69;97328.05;110325;1264;22304;-77
2023/01/17 12:52:23;;;;;;;5.20;1.40;;;;;;;12.92;68.77;97331.81;110460;1275;22187;-77
2023/01/17 12:55:01;;;;;;;8.70;1.50;;;;;;;12.80;67.32;97333.91;110475;1275;22368;-76
2023/01/17 12:57:40;;;;;;;3.30;1.30;;;;;;;12.78;67.14;97339.99;110372;1275;22416;-77
2023/01/17 13:00:21;;;;;;;10.30;1.90;;;;;;;12.85;67.49;97345.63;110477;1275;22312;-77
2023/01/17 13:02:55;;;;;;;3.20;1.60;;;;;;;12.87;65.26;97339.76;110430;1275;23055;-76
2023/01/17 13:05:23;;;;;;;;;;;;;;;12.80;67.70;97339.01;110473;1275;23218;-76
2023/01/17 13:08:05;;;;;;;5.40;1.30;;;;;;;12.64;66.40;97334.27;110449;1267;23265;-77
2023/01/17 13:10:49;;;;;;;4.40;1.50;;;;;;;12.51;67.58;97327.55;110428;1275;22356;-77
2023/01/17 13:13:24;;;;;;;5.20;2.00;;;;;;;12.37;66.67;97325.95;110416;1274;22862;-76